createdAt,value
2023-07-04T00:02:17.113Z,6.53
2023-07-04T00:04:48.579Z,6.40
2023-07-04T00:07:21.849Z,6.07
2023-07-04T00:09:48.265Z,5.70
2023-07-04T00:12:19.073Z,5.57
2023-07-04T00:14:51.993Z,5.80
2023-07-04T00:17:23.827Z,5.57
2023-07-04T00:19:54.478Z,6.10
2023-07-04T00:22:24.848Z,5.83
2023-07-04T00:24:57.333Z,5.13
2023-07-04T00:27:25.783Z,5.20
2023-07-04T00:29:58.814Z,4.90
2023-07-04T00:32:34.990Z,5.20
2023-07-04T00:35:06.946Z,5.83
2023-07-04T00:37:37.348Z,5.10
2023-07-04T00:40:12.271Z,4.80
2023-07-04T00:42:39.308Z,4.70
2023-07-04T00:45:22.492Z,4.93
2023-07-04T00:47:54.016Z,4.90
2023-07-04T00:50:23.653Z,4.63
2023-07-04T00:52:50.704Z,5.27
2023-07-04T00:55:18.300Z,5.73
2023-07-04T00:57:52.344Z,5.43
2023-07-04T01:00:25.379Z,6.13
2023-07-04T01:03:14.280Z,5.20
2023-07-04T01:05:46.669Z,5.20
2023-07-04T01:08:16.666Z,4.80
2023-07-04T01:10:44.557Z,5.57
2023-07-04T01:13:28.066Z,5.37
2023-07-04T01:15:59.258Z,5.57
2023-07-04T01:18:31.388Z,4.93
2023-07-04T01:21:05.948Z,4.90
2023-07-04T01:23:45.149Z,5.20
2023-07-04T01:26:25.609Z,5.00
2023-07-04T01:28:53.689Z,4.83
2023-07-04T01:31:20.751Z,4.93
2023-07-04T01:33:49.861Z,4.50
2023-07-04T01:36:27.533Z,4.63
2023-07-04T01:38:53.652Z,5.00
2023-07-04T01:41:20.149Z,4.80
2023-07-04T01:43:49.307Z,5.20
2023-07-04T01:46:21.613Z,5.00
2023-07-04T01:48:52.728Z,4.60
2023-07-04T01:51:26.226Z,4.40
2023-07-04T01:54:02.250Z,5.03
2023-07-04T01:56:30.655Z,4.17
2023-07-04T01:59:01.879Z,4.40
2023-07-04T02:01:33.456Z,3.73
2023-07-04T02:04:03.829Z,4.23
2023-07-04T02:06:34.274Z,4.40
2023-07-04T02:09:04.612Z,4.97
2023-07-04T02:11:36.666Z,4.73
2023-07-04T02:14:07.349Z,4.80
2023-07-04T02:16:38.089Z,5.17
2023-07-04T02:19:11.009Z,5.17
2023-07-04T02:21:41.985Z,5.67
2023-07-04T02:24:12.580Z,5.00
2023-07-04T02:26:43.342Z,4.70
2023-07-04T02:29:14.312Z,5.00
2023-07-04T02:31:44.673Z,4.70
2023-07-04T02:34:15.924Z,6.27
2023-07-04T02:36:47.758Z,5.67
2023-07-04T02:39:19.027Z,6.13
2023-07-04T02:41:49.460Z,5.73
2023-07-04T02:44:20.085Z,6.93
2023-07-04T02:46:50.365Z,5.93
2023-07-04T02:49:20.672Z,6.43
2023-07-04T02:51:50.902Z,6.47
2023-07-04T02:54:26.564Z,6.50
2023-07-04T02:56:57.006Z,5.80
2023-07-04T02:59:27.493Z,6.47
2023-07-04T03:02:01.689Z,6.03
2023-07-04T03:04:33.053Z,6.57
2023-07-04T03:07:03.963Z,6.10
2023-07-04T03:09:34.698Z,6.43
2023-07-04T03:12:06.235Z,5.90
2023-07-04T03:14:36.633Z,5.70
2023-07-04T03:17:07.355Z,6.20
2023-07-04T03:19:41.681Z,5.90
2023-07-04T03:22:12.424Z,5.17
2023-07-04T03:24:42.813Z,4.87
2023-07-04T03:27:15.957Z,4.70
2023-07-04T03:29:46.956Z,4.47
2023-07-04T03:32:17.203Z,4.93
2023-07-04T03:34:48.390Z,4.87
2023-07-04T03:37:18.553Z,4.80
2023-07-04T03:39:49.509Z,4.63
2023-07-04T03:42:20.285Z,4.37
2023-07-04T03:44:54.940Z,5.60
2023-07-04T03:47:26.654Z,4.50
2023-07-04T03:49:57.679Z,4.67
2023-07-04T03:52:28.639Z,4.97
2023-07-04T03:54:59.470Z,4.87
2023-07-04T03:57:30.052Z,5.00
2023-07-04T04:00:01.075Z,4.87
2023-07-04T04:02:34.586Z,4.50
2023-07-04T04:05:05.332Z,4.43
2023-07-04T04:07:35.936Z,4.77
2023-07-04T04:10:06.901Z,4.70
2023-07-04T04:12:37.177Z,4.23
2023-07-04T04:15:07.642Z,4.20
2023-07-04T04:17:38.565Z,4.43
2023-07-04T04:20:13.810Z,4.77
2023-07-04T04:22:45.718Z,4.30
2023-07-04T04:25:16.053Z,4.70
2023-07-04T04:27:49.879Z,5.00
2023-07-04T04:30:21.070Z,4.50
2023-07-04T04:32:51.115Z,4.87
2023-07-04T04:35:21.974Z,4.50
2023-07-04T04:37:51.730Z,4.43
2023-07-04T04:40:23.528Z,5.20
2023-07-04T04:42:56.079Z,4.97
2023-07-04T04:45:29.032Z,4.53
2023-07-04T04:48:02.335Z,4.60
2023-07-04T04:50:32.606Z,4.20
2023-07-04T04:53:05.256Z,4.83
2023-07-04T04:55:36.350Z,4.57
2023-07-04T04:58:06.934Z,4.50
2023-07-04T05:00:38.983Z,5.13
2023-07-04T05:03:09.077Z,5.20
2023-07-04T05:05:39.554Z,4.70
2023-07-04T05:08:10.402Z,4.60
2023-07-04T05:10:44.763Z,5.13
2023-07-04T05:13:15.697Z,4.73
2023-07-04T05:15:46.311Z,4.80
2023-07-04T05:18:16.677Z,5.67
2023-07-04T05:20:47.307Z,5.43
2023-07-04T05:23:18.522Z,4.70
2023-07-04T05:25:57.633Z,5.30
2023-07-04T05:28:25.308Z,4.60
2023-07-04T05:31:02.758Z,4.23
2023-07-04T05:33:28.985Z,5.00
2023-07-04T05:36:05.610Z,4.13
2023-07-04T05:38:32.359Z,4.70
2023-07-04T05:41:07.272Z,4.00
2023-07-04T05:43:35.393Z,3.97
2023-07-04T05:46:06.381Z,4.00
2023-07-04T05:48:36.449Z,4.10
2023-07-04T05:51:08.297Z,4.33
2023-07-04T05:53:42.088Z,4.13
2023-07-04T05:56:12.600Z,3.60
2023-07-04T05:58:46.177Z,4.70
2023-07-04T06:01:18.857Z,3.70
2023-07-04T06:03:48.104Z,4.07
2023-07-04T06:06:21.631Z,3.97
2023-07-04T06:08:49.681Z,3.73
2023-07-04T06:11:24.753Z,3.80
2023-07-04T06:13:51.249Z,3.40
2023-07-04T06:16:23.465Z,4.30
2023-07-04T06:18:58.132Z,4.30
2023-07-04T06:21:42.461Z,4.50
2023-07-04T06:24:09.991Z,4.63
2023-07-04T06:26:41.875Z,3.90
2023-07-04T06:29:07.988Z,3.97
2023-07-04T06:31:36.954Z,4.50
2023-07-04T06:34:07.740Z,4.03
2023-07-04T06:36:39.428Z,3.90
2023-07-04T06:39:11.124Z,3.37
2023-07-04T06:41:42.935Z,4.23
2023-07-04T06:44:15.733Z,4.60
2023-07-04T06:46:46.158Z,4.47
2023-07-04T06:49:16.517Z,4.13
2023-07-04T06:51:50.595Z,4.17
2023-07-04T06:54:23.003Z,3.80
2023-07-04T06:56:52.892Z,4.00
2023-07-04T06:59:23.238Z,4.53
2023-07-04T07:01:54.048Z,4.30
2023-07-04T07:04:25.009Z,4.93
2023-07-04T07:06:55.410Z,4.43
2023-07-04T07:09:30.898Z,3.70
2023-07-04T07:11:59.461Z,3.93
2023-07-04T07:14:30.534Z,4.70
2023-07-04T07:17:05.609Z,4.30
2023-07-04T07:19:36.419Z,4.30
2023-07-04T07:22:05.831Z,4.47
2023-07-04T07:27:07.912Z,4.50
2023-07-04T07:29:38.568Z,4.03
2023-07-04T07:32:09.489Z,4.40
2023-07-04T07:34:44.222Z,3.83
2023-07-04T07:37:14.791Z,3.93
2023-07-04T07:39:45.156Z,4.27
2023-07-04T07:42:19.544Z,3.80
2023-07-04T07:44:51.119Z,4.30
2023-07-04T07:47:22.100Z,4.07
2023-07-04T07:49:53.089Z,4.47
2023-07-04T07:52:23.939Z,4.10
2023-07-04T07:54:54.598Z,4.03
2023-07-04T07:57:25.678Z,4.33
2023-07-04T08:00:02.047Z,4.20
2023-07-04T08:02:33.073Z,4.20
2023-07-04T08:05:02.636Z,3.93
2023-07-04T08:07:35.373Z,4.30
2023-07-04T08:10:06.657Z,4.70
2023-07-04T08:12:36.657Z,3.93
2023-07-04T08:15:07.547Z,4.03
2023-07-04T08:17:38.621Z,4.40
2023-07-04T08:20:09.286Z,3.80
2023-07-04T08:22:39.866Z,4.03
2023-07-04T08:25:14.191Z,4.77
2023-07-04T08:27:44.486Z,4.70
2023-07-04T08:30:15.702Z,4.07
2023-07-04T08:32:46.030Z,4.37
2023-07-04T08:35:16.481Z,4.00
2023-07-04T08:37:46.718Z,4.43
2023-07-04T08:40:17.398Z,3.60
2023-07-04T08:42:51.520Z,4.47
2023-07-04T08:45:26.790Z,3.80
2023-07-04T08:47:55.082Z,3.70
2023-07-04T08:50:32.179Z,3.40
2023-07-04T08:53:07.922Z,3.90
2023-07-04T08:55:37.626Z,3.70
2023-07-04T08:58:03.983Z,3.83
2023-07-04T09:00:37.560Z,3.80
2023-07-04T09:03:21.858Z,3.17
2023-07-04T09:06:03.423Z,3.90
2023-07-04T09:08:40.221Z,3.33
2023-07-04T09:11:10.914Z,3.33
2023-07-04T09:13:44.133Z,3.47
2023-07-04T09:16:41.319Z,3.93
2023-07-04T09:19:15.897Z,3.27
2023-07-04T09:21:46.927Z,3.97
2023-07-04T09:24:18.182Z,3.50
2023-07-04T09:26:55.371Z,3.47
2023-07-04T09:29:26.569Z,2.90
2023-07-04T09:31:58.779Z,3.03
2023-07-04T09:34:47.767Z,3.40
2023-07-04T09:37:22.782Z,3.73
2023-07-04T09:40:00.931Z,3.33
2023-07-04T09:45:11.680Z,3.57
2023-07-04T09:47:47.582Z,3.07
2023-07-04T09:50:27.572Z,3.30
2023-07-04T09:53:19.020Z,3.63
2023-07-04T09:56:06.484Z,3.97
2023-07-04T09:58:41.872Z,3.33
2023-07-04T10:01:16.197Z,3.43
2023-07-04T10:03:43.022Z,4.00
2023-07-04T10:06:09.588Z,3.80
2023-07-04T10:08:54.094Z,3.90
2023-07-04T10:11:24.715Z,3.70
2023-07-04T10:13:58.302Z,3.80
2023-07-04T10:16:30.160Z,3.23
2023-07-04T10:19:11.049Z,3.93
2023-07-04T10:21:45.969Z,3.50
2023-07-04T10:24:18.953Z,4.00
2023-07-04T10:26:52.791Z,3.73
2023-07-04T10:29:24.099Z,3.17
2023-07-04T10:31:58.242Z,3.87
2023-07-04T10:34:31.166Z,3.97
2023-07-04T10:36:58.141Z,4.00
2023-07-04T10:39:31.974Z,4.10
2023-07-04T10:42:02.955Z,4.00
2023-07-04T10:44:33.975Z,3.80
2023-07-04T10:47:09.962Z,4.30
2023-07-04T10:49:47.406Z,3.77
2023-07-04T10:52:20.873Z,4.10
2023-07-04T10:54:52.171Z,3.40
2023-07-04T10:57:29.630Z,4.00
2023-07-04T11:00:13.500Z,3.47
2023-07-04T11:02:51.219Z,3.87
2023-07-04T11:05:30.080Z,4.00
2023-07-04T11:08:02.389Z,3.60
2023-07-04T11:10:38.591Z,4.00
2023-07-04T11:13:13.392Z,3.77
2023-07-04T11:15:47.492Z,4.10
2023-07-04T11:18:18.804Z,3.83
2023-07-04T11:20:52.077Z,4.07
2023-07-04T11:23:23.717Z,3.33
2023-07-04T11:26:05.017Z,3.90
2023-07-04T11:28:34.918Z,4.33
2023-07-04T11:31:13.783Z,3.90
2023-07-04T11:33:41.994Z,4.03
2023-07-04T11:36:10.275Z,4.27
2023-07-04T11:38:53.040Z,3.80
2023-07-04T11:41:26.805Z,4.17
2023-07-04T11:43:54.478Z,4.50
2023-07-04T11:46:29.798Z,4.67
2023-07-04T11:48:57.703Z,4.30
2023-07-04T11:51:26.668Z,4.50
2023-07-04T11:53:57.508Z,4.50
2023-07-04T11:56:27.138Z,4.67
2023-07-04T11:59:11.553Z,4.90
2023-07-04T12:01:52.660Z,5.10
2023-07-04T12:04:38.898Z,5.20
2023-07-04T12:07:07.748Z,4.97
2023-07-04T12:09:48.925Z,5.20
2023-07-04T12:12:22.733Z,4.83
2023-07-04T12:14:51.024Z,5.57
2023-07-04T12:17:24.621Z,5.20
2023-07-04T12:20:01.021Z,5.23
2023-07-04T12:22:27.244Z,4.80
2023-07-04T12:25:09.068Z,5.43
2023-07-04T12:27:41.519Z,5.73
2023-07-04T12:30:14.502Z,5.60
2023-07-04T12:33:01.554Z,4.90
2023-07-04T12:35:32.664Z,5.20
2023-07-04T12:38:19.515Z,5.17
2023-07-04T12:41:07.350Z,5.20
2023-07-04T12:51:44.929Z,5.20
2023-07-04T12:54:31.437Z,4.97
2023-07-04T12:57:17.828Z,5.53
2023-07-04T13:00:27.417Z,5.70
2023-07-04T13:03:16.444Z,5.73
2023-07-04T13:06:00.306Z,5.67
2023-07-04T13:08:40.558Z,5.60
2023-07-04T13:11:13.728Z,5.83
2023-07-04T13:13:41.003Z,4.80
2023-07-04T13:16:30.102Z,5.60
2023-07-04T13:19:17.115Z,5.33
2023-07-04T13:22:12.006Z,5.07
2023-07-04T13:24:59.262Z,4.67
2023-07-04T13:30:21.443Z,4.53
2023-07-04T13:34:12.582Z,5.00
2023-07-04T13:36:56.750Z,5.27
2023-07-04T13:42:14.620Z,4.97
2023-07-04T13:47:15.165Z,4.67
2023-07-04T13:49:41.537Z,5.07
2023-07-04T13:52:07.771Z,4.60
2023-07-04T13:54:33.867Z,4.90
2023-07-04T13:57:00.431Z,4.53
2023-07-04T13:59:26.501Z,5.27
2023-07-04T14:06:52.324Z,5.43
2023-07-04T14:09:18.810Z,5.87
2023-07-04T14:11:44.832Z,5.37
2023-07-04T14:17:27.295Z,5.90
2023-07-04T14:22:13.405Z,5.27
2023-07-04T14:24:39.609Z,5.70
2023-07-04T14:27:05.652Z,6.20
2023-07-04T14:29:32.194Z,7.10
2023-07-04T14:31:58.287Z,6.97
2023-07-04T14:34:26.437Z,6.90
2023-07-04T14:36:53.194Z,6.80
2023-07-04T14:39:19.486Z,7.10
2023-07-04T14:42:29.401Z,7.03
2023-07-04T14:44:31.579Z,7.60
2023-07-04T14:46:57.659Z,7.73
2023-07-04T14:49:24.422Z,7.23
2023-07-04T14:51:50.570Z,7.17
2023-07-04T14:54:16.737Z,7.60
2023-07-04T14:56:50.436Z,7.40
2023-07-04T14:59:17.427Z,7.60
2023-07-04T15:01:43.476Z,7.50
2023-07-04T15:04:09.569Z,7.20
2023-07-04T15:06:36.444Z,7.33
2023-07-04T15:09:03.055Z,7.40
2023-07-04T15:11:29.112Z,7.67
2023-07-04T15:13:55.150Z,7.67
2023-07-04T15:16:21.290Z,7.37
2023-07-04T15:18:47.449Z,7.50
2023-07-04T15:21:13.702Z,9.43
2023-07-04T15:23:39.853Z,8.20
2023-07-04T15:26:25.410Z,8.27
2023-07-04T15:28:53.011Z,8.20
2023-07-04T15:31:19.355Z,7.83
2023-07-04T15:33:45.519Z,7.73
2023-07-04T15:36:11.632Z,8.00
2023-07-04T15:38:38.316Z,7.90
2023-07-04T15:41:05.874Z,6.90
2023-07-04T15:43:34.731Z,7.63
2023-07-04T15:46:10.761Z,7.77
2023-07-04T15:48:40.097Z,8.20
2023-07-04T15:51:06.969Z,8.00
2023-07-04T15:53:33.301Z,7.90
2023-07-04T15:56:02.868Z,7.87
2023-07-04T15:58:29.343Z,8.47
2023-07-04T16:00:56.662Z,7.13
2023-07-04T16:03:23.089Z,7.27
2023-07-04T16:05:49.553Z,8.00
2023-07-04T16:08:15.935Z,6.60
2023-07-04T16:10:42.310Z,8.07
2023-07-04T16:13:08.385Z,8.13
2023-07-04T16:15:37.571Z,6.87
2023-07-04T16:18:03.658Z,7.07
2023-07-04T16:20:29.712Z,8.80
2023-07-04T16:22:55.801Z,8.27
2023-07-04T16:25:21.848Z,7.70
2023-07-04T16:27:47.894Z,7.20
2023-07-04T16:30:14.360Z,7.30
2023-07-04T16:32:40.429Z,7.30
2023-07-04T16:35:06.713Z,7.20
2023-07-04T16:37:32.704Z,7.13
2023-07-04T16:39:58.757Z,7.27
2023-07-04T16:42:24.844Z,7.10
2023-07-04T16:44:50.865Z,7.37
2023-07-04T16:47:16.888Z,7.67
2023-07-04T16:49:42.956Z,7.50
2023-07-04T16:52:09.080Z,7.47
2023-07-04T16:54:35.426Z,7.40
2023-07-04T16:57:03.272Z,7.13
2023-07-04T16:59:29.413Z,7.67
2023-07-04T17:01:55.607Z,7.27
2023-07-04T17:04:22.215Z,6.93
2023-07-04T17:06:48.246Z,7.57
2023-07-04T17:09:14.274Z,6.50
2023-07-04T17:11:40.293Z,7.27
2023-07-04T17:14:06.378Z,7.53
2023-07-04T17:16:32.446Z,6.50
2023-07-04T17:18:58.529Z,7.87
2023-07-04T17:21:24.594Z,6.53
2023-07-04T17:23:52.949Z,6.63
2023-07-04T17:26:19.400Z,7.87
2023-07-04T17:28:45.439Z,7.07
2023-07-04T17:31:11.660Z,7.30
2023-07-04T17:33:37.835Z,7.37
2023-07-04T17:36:05.110Z,7.63
2023-07-04T17:38:31.776Z,7.60
2023-07-04T17:41:01.851Z,7.40
2023-07-04T17:43:28.556Z,7.27
2023-07-04T17:45:58.284Z,7.47
2023-07-04T17:48:24.332Z,8.30
2023-07-04T17:50:50.392Z,8.20
2023-07-04T17:53:16.427Z,7.20
2023-07-04T17:55:42.455Z,7.37
2023-07-04T17:58:08.499Z,37.20
2023-07-04T18:00:34.965Z,16.07
2023-07-04T18:03:01.042Z,6.97
2023-07-04T18:05:27.221Z,7.30
2023-07-04T18:07:53.296Z,7.00
2023-07-04T18:10:19.346Z,8.57
2023-07-04T18:12:45.376Z,8.40
2023-07-04T18:15:12.459Z,9.27
2023-07-04T18:17:38.629Z,8.40
2023-07-04T18:20:05.226Z,8.20
2023-07-04T18:22:31.306Z,8.30
2023-07-04T18:24:58.572Z,7.60
2023-07-04T18:27:24.584Z,10.07
2023-07-04T18:29:51.898Z,8.13
2023-07-04T18:32:18.016Z,10.47
2023-07-04T18:34:44.052Z,9.77
2023-07-04T18:37:10.077Z,8.90
2023-07-04T18:39:36.179Z,8.83
2023-07-04T18:42:02.243Z,9.03
2023-07-04T18:44:28.287Z,8.57
2023-07-04T18:46:54.541Z,9.13
2023-07-04T18:49:24.891Z,9.43
2023-07-04T18:51:52.471Z,9.00
2023-07-04T18:54:18.596Z,8.80
2023-07-04T18:56:45.517Z,8.57
2023-07-04T18:59:13.482Z,8.90
2023-07-04T19:01:41.746Z,9.23
2023-07-04T19:04:07.971Z,8.77
2023-07-04T19:06:35.406Z,8.50
2023-07-04T19:09:02.141Z,8.10
2023-07-04T19:11:29.077Z,8.00
2023-07-04T19:14:05.510Z,8.70
2023-07-04T19:16:33.362Z,8.00
2023-07-04T19:18:59.440Z,8.90
2023-07-04T19:21:25.541Z,9.33
2023-07-04T19:23:51.670Z,8.80
2023-07-04T19:26:17.714Z,10.07
2023-07-04T19:28:43.823Z,8.70
2023-07-04T19:31:09.940Z,8.70
2023-07-04T19:33:36.008Z,7.73
2023-07-04T19:36:02.513Z,8.90
2023-07-04T19:38:28.836Z,9.07
2023-07-04T19:40:56.173Z,10.23
2023-07-04T19:43:23.239Z,9.00
2023-07-04T19:45:53.181Z,9.37
2023-07-04T19:48:21.557Z,9.10
2023-07-04T19:50:47.733Z,9.10
2023-07-04T19:53:13.754Z,11.57
2023-07-04T19:55:39.793Z,8.83
2023-07-04T19:58:08.436Z,9.17
2023-07-04T20:00:34.518Z,9.70
2023-07-04T20:03:00.736Z,9.97
2023-07-04T20:05:26.877Z,11.27
2023-07-04T20:07:52.927Z,10.83
2023-07-04T20:10:18.997Z,10.67
2023-07-04T20:12:45.467Z,10.70
2023-07-04T20:15:11.497Z,10.00
2023-07-04T20:17:39.543Z,11.40
2023-07-04T20:20:06.108Z,9.53
2023-07-04T20:22:32.107Z,10.00
2023-07-04T20:24:58.131Z,9.80
2023-07-04T20:27:24.152Z,9.90
2023-07-04T20:29:50.190Z,9.57
2023-07-04T20:32:16.302Z,9.77
2023-07-04T20:34:42.340Z,10.00
2023-07-04T20:37:08.527Z,10.20
2023-07-04T20:39:36.833Z,10.10
2023-07-04T20:42:03.560Z,9.90
2023-07-04T20:44:29.571Z,10.17
2023-07-04T20:46:55.596Z,10.13
2023-07-04T20:49:23.467Z,9.90
2023-07-04T20:51:50.015Z,10.20
2023-07-04T20:54:16.650Z,9.13
2023-07-04T20:56:42.858Z,8.93
2023-07-04T20:59:08.892Z,9.30
2023-07-04T21:01:35.046Z,9.13
2023-07-04T21:04:01.142Z,10.27
2023-07-04T21:06:28.422Z,9.80
2023-07-04T21:08:57.744Z,9.00
2023-07-04T21:11:23.817Z,9.50
2023-07-04T21:13:49.893Z,9.27
2023-07-04T21:16:16.142Z,9.77
2023-07-04T21:18:42.859Z,9.60
2023-07-04T21:21:09.392Z,9.37
2023-07-04T21:23:35.669Z,9.23
2023-07-04T21:26:01.957Z,10.10
2023-07-04T21:28:29.874Z,9.70
2023-07-04T21:31:05.870Z,10.00
2023-07-04T21:33:32.121Z,9.50
2023-07-04T21:36:00.243Z,9.70
2023-07-04T21:38:26.412Z,10.47
2023-07-04T21:40:56.011Z,9.77
2023-07-04T21:43:22.573Z,8.87
2023-07-04T21:45:58.023Z,9.90
2023-07-04T21:48:24.282Z,9.87
2023-07-04T21:50:53.845Z,9.33
2023-07-04T21:53:20.217Z,8.90
2023-07-04T21:55:46.293Z,8.93
2023-07-04T21:58:12.498Z,10.20
2023-07-04T22:00:38.658Z,9.97
2023-07-04T22:03:04.864Z,8.93
2023-07-04T22:05:30.965Z,9.20
2023-07-04T22:07:56.988Z,9.60
2023-07-04T22:10:24.457Z,9.87
2023-07-04T22:12:51.935Z,9.67
2023-07-04T22:15:22.334Z,9.70
2023-07-04T22:17:48.909Z,9.27
2023-07-04T22:20:15.442Z,8.93
2023-07-04T22:22:41.907Z,10.10
2023-07-04T22:25:08.340Z,9.90
2023-07-04T22:27:34.363Z,9.43
2023-07-04T22:30:00.441Z,10.10
2023-07-04T22:32:26.553Z,9.57
2023-07-04T22:34:52.724Z,9.73
2023-07-04T22:37:18.779Z,9.33
2023-07-04T22:39:44.839Z,10.07
2023-07-04T22:42:10.879Z,9.10
2023-07-04T22:44:36.903Z,9.30
2023-07-04T22:47:02.952Z,9.07
2023-07-04T22:49:32.552Z,9.17
2023-07-04T22:51:58.980Z,8.80
2023-07-04T22:54:25.071Z,9.00
2023-07-04T22:56:51.095Z,8.90
2023-07-04T22:59:17.507Z,9.30
2023-07-04T23:01:43.599Z,9.53
2023-07-04T23:04:09.676Z,8.60
2023-07-04T23:06:37.769Z,8.43
2023-07-04T23:09:07.670Z,8.70
2023-07-04T23:11:33.980Z,8.40
2023-07-04T23:14:00.388Z,8.60
2023-07-04T23:16:26.641Z,9.10
2023-07-04T23:18:52.850Z,8.70
2023-07-04T23:21:19.146Z,9.27
2023-07-04T23:23:46.302Z,8.63
2023-07-04T23:26:14.178Z,9.03
2023-07-04T23:28:41.832Z,8.20
2023-07-04T23:31:09.142Z,8.57
2023-07-04T23:33:35.297Z,8.77
2023-07-04T23:36:01.910Z,8.13
2023-07-04T23:38:28.588Z,8.20
2023-07-04T23:40:54.728Z,8.60
2023-07-04T23:43:20.941Z,8.53
2023-07-04T23:45:47.026Z,7.93
2023-07-04T23:48:13.623Z,7.57
2023-07-04T23:50:40.568Z,7.50
2023-07-04T23:53:06.606Z,8.00
2023-07-04T23:55:32.650Z,8.50
2023-07-04T23:57:58.802Z,8.03
